Isle of North Uist, United Kingdom
Current Conditions -  °F | °C
As of 10:20 PM on Friday 24 Oct 2014 (Local Time) from EGPL Reporting Station
Few Clouds Few Clouds  
Wind Chill: 41°   Ceiling: Unl
Heat Index: 48°   Visibility: 6mi
Dew Point: 43°   Wind: 21mph
Humidity: 82%   Direction: 240°WSW
Pressure: 29.56"   Gusts: NA
Location:  57.6°N, 7.16°W
Report Text: EGPL 242120Z AUTO 24018KT 9999 FEW027/// 09/06 Q1001
Loading
Personal Weather Stations






























Interactive Weather Map New forecast layout! Learn more

10-Day Weather Forecast

Advertisements
Track Severe Weather on mobile